sensor_id;sensor_type;location;lat;lon;timestamp;P1;durP1;ratioP1;P2;durP2;ratioP2
39994;SDS011;25686;51.908;10.418;2022-10-14T00:00:34;22.90;;;13.80;;
39994;SDS011;25686;51.908;10.418;2022-10-14T00:02:35;25.23;;;13.90;;
39994;SDS011;25686;51.908;10.418;2022-10-14T00:04:36;26.00;;;13.35;;
39994;SDS011;25686;51.908;10.418;2022-10-14T00:06:37;27.05;;;13.55;;
39994;SDS011;25686;51.908;10.418;2022-10-14T00:08:38;23.92;;;14.00;;
39994;SDS011;25686;51.908;10.418;2022-10-14T00:10:40;25.67;;;13.63;;
39994;SDS011;25686;51.908;10.418;2022-10-14T00:12:41;24.95;;;14.13;;
39994;SDS011;25686;51.908;10.418;2022-10-14T00:14:42;26.92;;;15.65;;
39994;SDS011;25686;51.908;10.418;2022-10-14T00:16:45;21.27;;;14.20;;
39994;SDS011;25686;51.908;10.418;2022-10-14T00:18:47;24.75;;;14.85;;
39994;SDS011;25686;51.908;10.418;2022-10-14T00:20:58;25.77;;;15.35;;
39994;SDS011;25686;51.908;10.418;2022-10-14T00:22:59;27.20;;;15.70;;
39994;SDS011;25686;51.908;10.418;2022-10-14T00:25:00;25.77;;;15.13;;
39994;SDS011;25686;51.908;10.418;2022-10-14T00:27:01;24.25;;;15.02;;
39994;SDS011;25686;51.908;10.418;2022-10-14T00:29:03;19.45;;;14.68;;
39994;SDS011;25686;51.908;10.418;2022-10-14T00:31:04;23.23;;;14.80;;
39994;SDS011;25686;51.908;10.418;2022-10-14T00:33:05;23.83;;;15.00;;
39994;SDS011;25686;51.908;10.418;2022-10-14T00:35:06;21.15;;;14.35;;
39994;SDS011;25686;51.908;10.418;2022-10-14T00:37:07;28.02;;;14.93;;
39994;SDS011;25686;51.908;10.418;2022-10-14T00:39:08;27.10;;;14.18;;
39994;SDS011;25686;51.908;10.418;2022-10-14T00:41:13;22.17;;;14.48;;
39994;SDS011;25686;51.908;10.418;2022-10-14T00:43:14;23.33;;;14.48;;
39994;SDS011;25686;51.908;10.418;2022-10-14T00:45:18;25.35;;;15.07;;
39994;SDS011;25686;51.908;10.418;2022-10-14T00:47:19;25.90;;;15.05;;
39994;SDS011;25686;51.908;10.418;2022-10-14T00:51:21;25.88;;;14.98;;
39994;SDS011;25686;51.908;10.418;2022-10-14T00:53:22;21.50;;;13.32;;
39994;SDS011;25686;51.908;10.418;2022-10-14T00:55:23;26.02;;;16.35;;
39994;SDS011;25686;51.908;10.418;2022-10-14T00:57:25;25.10;;;15.50;;
39994;SDS011;25686;51.908;10.418;2022-10-14T00:59:26;26.08;;;15.60;;
39994;SDS011;25686;51.908;10.418;2022-10-14T01:01:27;26.20;;;17.33;;
39994;SDS011;25686;51.908;10.418;2022-10-14T01:03:28;28.55;;;18.15;;
39994;SDS011;25686;51.908;10.418;2022-10-14T01:05:30;25.83;;;17.30;;
39994;SDS011;25686;51.908;10.418;2022-10-14T01:07:46;26.48;;;17.17;;
39994;SDS011;25686;51.908;10.418;2022-10-14T01:09:56;26.67;;;17.40;;
39994;SDS011;25686;51.908;10.418;2022-10-14T01:14:11;29.90;;;17.83;;
39994;SDS011;25686;51.908;10.418;2022-10-14T01:22:42;25.35;;;16.77;;
39994;SDS011;25686;51.908;10.418;2022-10-14T01:25:00;26.88;;;16.05;;
39994;SDS011;25686;51.908;10.418;2022-10-14T01:31:46;26.52;;;15.98;;
39994;SDS011;25686;51.908;10.418;2022-10-14T01:33:50;24.83;;;16.23;;
39994;SDS011;25686;51.908;10.418;2022-10-14T01:35:58;23.05;;;15.48;;
39994;SDS011;25686;51.908;10.418;2022-10-14T01:38:14;23.35;;;14.57;;
39994;SDS011;25686;51.908;10.418;2022-10-14T01:40:30;24.58;;;15.13;;
39994;SDS011;25686;51.908;10.418;2022-10-14T01:42:34;22.70;;;13.85;;
39994;SDS011;25686;51.908;10.418;2022-10-14T01:44:37;18.83;;;14.00;;
39994;SDS011;25686;51.908;10.418;2022-10-14T01:46:41;22.35;;;13.13;;
39994;SDS011;25686;51.908;10.418;2022-10-14T01:48:57;18.10;;;13.30;;
39994;SDS011;25686;51.908;10.418;2022-10-14T01:50:59;21.02;;;13.27;;
39994;SDS011;25686;51.908;10.418;2022-10-14T01:53:03;18.17;;;12.57;;
39994;SDS011;25686;51.908;10.418;2022-10-14T01:55:06;21.33;;;13.80;;
39994;SDS011;25686;51.908;10.418;2022-10-14T01:57:14;17.08;;;12.20;;
39994;SDS011;25686;51.908;10.418;2022-10-14T01:59:16;20.38;;;12.43;;
39994;SDS011;25686;51.908;10.418;2022-10-14T02:01:18;22.17;;;13.40;;
39994;SDS011;25686;51.908;10.418;2022-10-14T02:03:19;19.33;;;12.90;;
39994;SDS011;25686;51.908;10.418;2022-10-14T02:05:21;20.90;;;13.18;;
39994;SDS011;25686;51.908;10.418;2022-10-14T02:07:33;23.88;;;13.38;;
39994;SDS011;25686;51.908;10.418;2022-10-14T02:11:44;20.08;;;13.88;;
39994;SDS011;25686;51.908;10.418;2022-10-14T02:13:49;24.85;;;14.25;;
39994;SDS011;25686;51.908;10.418;2022-10-14T02:15:56;19.50;;;13.65;;
39994;SDS011;25686;51.908;10.418;2022-10-14T02:20:15;21.33;;;13.65;;
39994;SDS011;25686;51.908;10.418;2022-10-14T02:26:28;24.13;;;15.27;;
39994;SDS011;25686;51.908;10.418;2022-10-14T02:28:29;22.63;;;15.25;;
39994;SDS011;25686;51.908;10.418;2022-10-14T02:30:31;24.38;;;15.38;;
39994;SDS011;25686;51.908;10.418;2022-10-14T02:32:33;27.08;;;17.02;;
39994;SDS011;25686;51.908;10.418;2022-10-14T02:34:35;26.48;;;17.15;;
39994;SDS011;25686;51.908;10.418;2022-10-14T02:36:36;24.23;;;16.45;;
39994;SDS011;25686;51.908;10.418;2022-10-14T02:38:38;29.67;;;17.30;;
39994;SDS011;25686;51.908;10.418;2022-10-14T02:40:43;26.38;;;16.17;;
39994;SDS011;25686;51.908;10.418;2022-10-14T02:42:45;31.35;;;17.63;;
39994;SDS011;25686;51.908;10.418;2022-10-14T02:44:53;30.05;;;17.65;;
39994;SDS011;25686;51.908;10.418;2022-10-14T02:46:54;28.23;;;17.88;;
39994;SDS011;25686;51.908;10.418;2022-10-14T02:48:55;27.48;;;18.38;;
39994;SDS011;25686;51.908;10.418;2022-10-14T02:50:56;30.08;;;19.45;;
39994;SDS011;25686;51.908;10.418;2022-10-14T02:52:57;32.47;;;18.40;;
39994;SDS011;25686;51.908;10.418;2022-10-14T02:54:58;29.55;;;19.88;;
39994;SDS011;25686;51.908;10.418;2022-10-14T02:56:59;33.00;;;19.63;;
39994;SDS011;25686;51.908;10.418;2022-10-14T02:59:00;30.73;;;19.05;;
39994;SDS011;25686;51.908;10.418;2022-10-14T03:01:01;34.10;;;19.75;;
39994;SDS011;25686;51.908;10.418;2022-10-14T03:03:02;28.80;;;18.25;;
39994;SDS011;25686;51.908;10.418;2022-10-14T03:05:03;26.75;;;18.63;;
39994;SDS011;25686;51.908;10.418;2022-10-14T03:07:04;31.77;;;17.92;;
39994;SDS011;25686;51.908;10.418;2022-10-14T03:09:05;26.92;;;17.17;;
39994;SDS011;25686;51.908;10.418;2022-10-14T03:11:06;26.23;;;17.25;;
39994;SDS011;25686;51.908;10.418;2022-10-14T03:13:07;28.65;;;18.13;;
39994;SDS011;25686;51.908;10.418;2022-10-14T03:15:08;28.73;;;18.73;;
39994;SDS011;25686;51.908;10.418;2022-10-14T03:17:09;28.17;;;18.40;;
39994;SDS011;25686;51.908;10.418;2022-10-14T03:19:10;28.25;;;17.40;;
39994;SDS011;25686;51.908;10.418;2022-10-14T03:21:11;29.25;;;17.65;;
39994;SDS011;25686;51.908;10.418;2022-10-14T03:23:12;26.10;;;17.50;;
39994;SDS011;25686;51.908;10.418;2022-10-14T03:25:13;25.67;;;16.70;;
39994;SDS011;25686;51.908;10.418;2022-10-14T03:27:15;24.02;;;16.98;;
39994;SDS011;25686;51.908;10.418;2022-10-14T03:29:16;26.00;;;18.33;;
39994;SDS011;25686;51.908;10.418;2022-10-14T03:31:17;26.52;;;17.80;;
39994;SDS011;25686;51.908;10.418;2022-10-14T03:33:18;33.38;;;18.45;;
39994;SDS011;25686;51.908;10.418;2022-10-14T03:35:18;33.50;;;19.05;;
39994;SDS011;25686;51.908;10.418;2022-10-14T03:37:19;25.42;;;17.98;;
39994;SDS011;25686;51.908;10.418;2022-10-14T03:39:20;27.52;;;18.45;;
39994;SDS011;25686;51.908;10.418;2022-10-14T03:41:21;25.33;;;17.10;;
39994;SDS011;25686;51.908;10.418;2022-10-14T03:43:22;29.80;;;18.13;;
39994;SDS011;25686;51.908;10.418;2022-10-14T03:45:23;29.17;;;18.15;;
39994;SDS011;25686;51.908;10.418;2022-10-14T03:47:24;29.38;;;17.75;;
39994;SDS011;25686;51.908;10.418;2022-10-14T03:49:25;26.55;;;17.30;;
39994;SDS011;25686;51.908;10.418;2022-10-14T03:51:26;27.95;;;18.00;;
39994;SDS011;25686;51.908;10.418;2022-10-14T03:53:27;23.50;;;16.20;;
39994;SDS011;25686;51.908;10.418;2022-10-14T03:55:28;28.67;;;17.10;;
39994;SDS011;25686;51.908;10.418;2022-10-14T03:57:29;25.08;;;15.82;;
39994;SDS011;25686;51.908;10.418;2022-10-14T03:59:30;27.52;;;16.27;;
39994;SDS011;25686;51.908;10.418;2022-10-14T04:01:31;22.52;;;15.43;;
39994;SDS011;25686;51.908;10.418;2022-10-14T04:03:32;22.27;;;15.27;;
39994;SDS011;25686;51.908;10.418;2022-10-14T04:05:33;24.67;;;15.02;;
39994;SDS011;25686;51.908;10.418;2022-10-14T04:07:34;20.25;;;14.70;;
39994;SDS011;25686;51.908;10.418;2022-10-14T04:09:35;23.65;;;14.65;;
39994;SDS011;25686;51.908;10.418;2022-10-14T04:11:36;22.83;;;14.65;;
39994;SDS011;25686;51.908;10.418;2022-10-14T04:13:37;21.52;;;14.27;;
39994;SDS011;25686;51.908;10.418;2022-10-14T04:15:38;20.70;;;13.85;;
39994;SDS011;25686;51.908;10.418;2022-10-14T04:17:39;21.50;;;13.00;;
39994;SDS011;25686;51.908;10.418;2022-10-14T04:19:40;20.45;;;12.68;;
39994;SDS011;25686;51.908;10.418;2022-10-14T04:21:41;20.80;;;13.15;;
39994;SDS011;25686;51.908;10.418;2022-10-14T04:23:42;16.98;;;12.25;;
39994;SDS011;25686;51.908;10.418;2022-10-14T04:25:43;17.02;;;11.60;;
39994;SDS011;25686;51.908;10.418;2022-10-14T04:27:44;19.13;;;12.00;;
39994;SDS011;25686;51.908;10.418;2022-10-14T04:29:45;19.35;;;12.00;;
39994;SDS011;25686;51.908;10.418;2022-10-14T04:31:46;16.42;;;11.98;;
39994;SDS011;25686;51.908;10.418;2022-10-14T04:33:47;16.88;;;11.85;;
39994;SDS011;25686;51.908;10.418;2022-10-14T04:35:48;19.55;;;11.93;;
39994;SDS011;25686;51.908;10.418;2022-10-14T04:37:49;21.85;;;11.55;;
39994;SDS011;25686;51.908;10.418;2022-10-14T04:39:50;17.38;;;11.10;;
39994;SDS011;25686;51.908;10.418;2022-10-14T04:41:51;17.10;;;11.52;;
39994;SDS011;25686;51.908;10.418;2022-10-14T04:43:52;15.05;;;11.43;;
39994;SDS011;25686;51.908;10.418;2022-10-14T04:45:53;19.50;;;11.25;;
39994;SDS011;25686;51.908;10.418;2022-10-14T04:47:54;17.23;;;11.48;;
39994;SDS011;25686;51.908;10.418;2022-10-14T04:49:55;15.18;;;11.10;;
39994;SDS011;25686;51.908;10.418;2022-10-14T04:51:56;16.40;;;11.98;;
39994;SDS011;25686;51.908;10.418;2022-10-14T04:53:57;18.27;;;12.73;;
39994;SDS011;25686;51.908;10.418;2022-10-14T04:55:59;20.95;;;13.57;;
39994;SDS011;25686;51.908;10.418;2022-10-14T04:58:00;17.05;;;12.07;;
39994;SDS011;25686;51.908;10.418;2022-10-14T05:00:02;20.92;;;14.18;;
39994;SDS011;25686;51.908;10.418;2022-10-14T05:02:03;19.50;;;13.45;;
39994;SDS011;25686;51.908;10.418;2022-10-14T05:04:04;20.83;;;14.43;;
39994;SDS011;25686;51.908;10.418;2022-10-14T05:06:05;20.35;;;14.00;;
39994;SDS011;25686;51.908;10.418;2022-10-14T05:08:06;21.02;;;13.45;;
39994;SDS011;25686;51.908;10.418;2022-10-14T05:10:07;21.15;;;14.10;;
39994;SDS011;25686;51.908;10.418;2022-10-14T05:12:11;21.48;;;13.90;;
39994;SDS011;25686;51.908;10.418;2022-10-14T05:14:13;21.65;;;15.05;;
39994;SDS011;25686;51.908;10.418;2022-10-14T05:16:14;19.65;;;14.52;;
39994;SDS011;25686;51.908;10.418;2022-10-14T05:18:15;20.48;;;14.50;;
39994;SDS011;25686;51.908;10.418;2022-10-14T05:20:16;25.25;;;15.52;;
39994;SDS011;25686;51.908;10.418;2022-10-14T05:22:17;21.73;;;15.73;;
39994;SDS011;25686;51.908;10.418;2022-10-14T05:24:18;22.33;;;15.23;;
39994;SDS011;25686;51.908;10.418;2022-10-14T05:26:19;20.83;;;14.50;;
39994;SDS011;25686;51.908;10.418;2022-10-14T05:28:20;22.65;;;15.10;;
39994;SDS011;25686;51.908;10.418;2022-10-14T05:30:21;20.63;;;14.60;;
39994;SDS011;25686;51.908;10.418;2022-10-14T05:32:22;21.17;;;15.20;;
39994;SDS011;25686;51.908;10.418;2022-10-14T05:34:23;21.33;;;14.15;;
39994;SDS011;25686;51.908;10.418;2022-10-14T05:36:24;20.23;;;15.02;;
39994;SDS011;25686;51.908;10.418;2022-10-14T05:38:25;20.23;;;14.52;;
39994;SDS011;25686;51.908;10.418;2022-10-14T05:40:26;21.17;;;15.10;;
39994;SDS011;25686;51.908;10.418;2022-10-14T05:42:27;22.83;;;15.38;;
39994;SDS011;25686;51.908;10.418;2022-10-14T05:44:28;20.67;;;15.02;;
39994;SDS011;25686;51.908;10.418;2022-10-14T05:46:29;21.15;;;15.02;;
39994;SDS011;25686;51.908;10.418;2022-10-14T05:48:30;23.73;;;15.35;;
39994;SDS011;25686;51.908;10.418;2022-10-14T05:50:31;27.02;;;16.45;;
39994;SDS011;25686;51.908;10.418;2022-10-14T05:52:33;24.48;;;15.52;;
39994;SDS011;25686;51.908;10.418;2022-10-14T05:54:34;22.80;;;14.57;;
39994;SDS011;25686;51.908;10.418;2022-10-14T05:56:35;20.95;;;13.65;;
39994;SDS011;25686;51.908;10.418;2022-10-14T05:58:36;20.83;;;13.68;;
39994;SDS011;25686;51.908;10.418;2022-10-14T06:00:37;18.45;;;13.07;;
39994;SDS011;25686;51.908;10.418;2022-10-14T06:02:38;17.90;;;13.00;;
39994;SDS011;25686;51.908;10.418;2022-10-14T06:04:39;16.83;;;12.40;;
39994;SDS011;25686;51.908;10.418;2022-10-14T06:06:41;20.55;;;13.38;;
39994;SDS011;25686;51.908;10.418;2022-10-14T06:08:42;17.65;;;13.20;;
39994;SDS011;25686;51.908;10.418;2022-10-14T06:10:44;16.17;;;11.77;;
39994;SDS011;25686;51.908;10.418;2022-10-14T06:12:44;18.05;;;12.50;;
39994;SDS011;25686;51.908;10.418;2022-10-14T06:14:46;18.25;;;12.75;;
39994;SDS011;25686;51.908;10.418;2022-10-14T06:16:49;19.77;;;12.52;;
39994;SDS011;25686;51.908;10.418;2022-10-14T06:18:51;19.52;;;13.10;;
39994;SDS011;25686;51.908;10.418;2022-10-14T06:20:52;19.80;;;13.38;;
39994;SDS011;25686;51.908;10.418;2022-10-14T06:22:53;16.58;;;11.68;;
39994;SDS011;25686;51.908;10.418;2022-10-14T06:24:54;18.63;;;11.98;;
39994;SDS011;25686;51.908;10.418;2022-10-14T06:26:55;17.83;;;12.48;;
39994;SDS011;25686;51.908;10.418;2022-10-14T06:28:57;19.70;;;12.80;;
39994;SDS011;25686;51.908;10.418;2022-10-14T06:30:57;15.60;;;11.85;;
39994;SDS011;25686;51.908;10.418;2022-10-14T06:32:58;17.00;;;12.25;;
39994;SDS011;25686;51.908;10.418;2022-10-14T06:34:59;17.52;;;11.85;;
39994;SDS011;25686;51.908;10.418;2022-10-14T06:37:00;17.17;;;11.52;;
39994;SDS011;25686;51.908;10.418;2022-10-14T06:39:02;18.67;;;11.93;;
39994;SDS011;25686;51.908;10.418;2022-10-14T06:41:03;17.67;;;11.27;;
39994;SDS011;25686;51.908;10.418;2022-10-14T06:43:04;16.05;;;11.65;;
39994;SDS011;25686;51.908;10.418;2022-10-14T06:45:05;18.40;;;11.80;;
39994;SDS011;25686;51.908;10.418;2022-10-14T06:47:06;19.98;;;13.10;;
39994;SDS011;25686;51.908;10.418;2022-10-14T06:49:07;18.02;;;12.50;;
39994;SDS011;25686;51.908;10.418;2022-10-14T06:51:08;18.38;;;12.93;;
39994;SDS011;25686;51.908;10.418;2022-10-14T06:53:09;17.52;;;12.43;;
39994;SDS011;25686;51.908;10.418;2022-10-14T06:55:10;19.60;;;12.98;;
39994;SDS011;25686;51.908;10.418;2022-10-14T06:57:11;17.55;;;12.23;;
39994;SDS011;25686;51.908;10.418;2022-10-14T06:59:13;17.52;;;11.98;;
39994;SDS011;25686;51.908;10.418;2022-10-14T07:01:14;15.88;;;11.30;;
39994;SDS011;25686;51.908;10.418;2022-10-14T07:03:15;13.77;;;10.73;;
39994;SDS011;25686;51.908;10.418;2022-10-14T07:05:16;13.43;;;10.15;;
39994;SDS011;25686;51.908;10.418;2022-10-14T07:07:17;13.15;;;10.10;;
39994;SDS011;25686;51.908;10.418;2022-10-14T07:09:17;14.75;;;9.55;;
39994;SDS011;25686;51.908;10.418;2022-10-14T07:11:18;11.95;;;8.90;;
39994;SDS011;25686;51.908;10.418;2022-10-14T07:13:19;11.43;;;8.55;;
39994;SDS011;25686;51.908;10.418;2022-10-14T07:15:20;9.18;;;8.05;;
39994;SDS011;25686;51.908;10.418;2022-10-14T07:17:21;8.82;;;7.72;;
39994;SDS011;25686;51.908;10.418;2022-10-14T07:19:22;11.52;;;7.90;;
39994;SDS011;25686;51.908;10.418;2022-10-14T07:21:23;10.77;;;7.82;;
39994;SDS011;25686;51.908;10.418;2022-10-14T07:23:24;11.35;;;7.95;;
39994;SDS011;25686;51.908;10.418;2022-10-14T07:25:25;9.75;;;8.32;;
39994;SDS011;25686;51.908;10.418;2022-10-14T07:27:26;9.40;;;7.00;;
39994;SDS011;25686;51.908;10.418;2022-10-14T07:29:27;10.20;;;7.18;;
39994;SDS011;25686;51.908;10.418;2022-10-14T07:31:28;9.68;;;7.20;;
39994;SDS011;25686;51.908;10.418;2022-10-14T07:33:29;10.77;;;8.15;;
39994;SDS011;25686;51.908;10.418;2022-10-14T07:35:30;10.77;;;7.13;;
39994;SDS011;25686;51.908;10.418;2022-10-14T07:37:31;11.07;;;7.50;;
39994;SDS011;25686;51.908;10.418;2022-10-14T07:39:32;9.07;;;7.40;;
39994;SDS011;25686;51.908;10.418;2022-10-14T07:41:33;10.38;;;7.13;;
39994;SDS011;25686;51.908;10.418;2022-10-14T07:43:34;10.80;;;7.03;;
39994;SDS011;25686;51.908;10.418;2022-10-14T07:45:38;10.95;;;6.63;;
39994;SDS011;25686;51.908;10.418;2022-10-14T07:47:39;7.75;;;6.20;;
39994;SDS011;25686;51.908;10.418;2022-10-14T07:49:40;7.80;;;5.70;;
39994;SDS011;25686;51.908;10.418;2022-10-14T07:51:41;7.07;;;5.68;;
39994;SDS011;25686;51.908;10.418;2022-10-14T07:53:42;8.88;;;6.07;;
39994;SDS011;25686;51.908;10.418;2022-10-14T07:55:44;8.48;;;4.95;;
39994;SDS011;25686;51.908;10.418;2022-10-14T07:57:51;9.75;;;5.55;;
39994;SDS011;25686;51.908;10.418;2022-10-14T07:59:51;7.20;;;5.55;;
39994;SDS011;25686;51.908;10.418;2022-10-14T08:01:53;8.10;;;5.30;;
39994;SDS011;25686;51.908;10.418;2022-10-14T08:03:55;7.13;;;5.45;;
39994;SDS011;25686;51.908;10.418;2022-10-14T08:05:57;6.10;;;5.18;;
39994;SDS011;25686;51.908;10.418;2022-10-14T08:07:58;4.90;;;4.40;;
39994;SDS011;25686;51.908;10.418;2022-10-14T08:09:59;6.97;;;5.35;;
39994;SDS011;25686;51.908;10.418;2022-10-14T08:12:00;5.85;;;4.70;;
39994;SDS011;25686;51.908;10.418;2022-10-14T08:14:02;5.45;;;4.78;;
39994;SDS011;25686;51.908;10.418;2022-10-14T08:16:10;7.00;;;5.43;;
39994;SDS011;25686;51.908;10.418;2022-10-14T08:18:12;8.05;;;5.18;;
39994;SDS011;25686;51.908;10.418;2022-10-14T08:20:13;7.72;;;5.13;;
39994;SDS011;25686;51.908;10.418;2022-10-14T08:22:13;7.45;;;5.50;;
39994;SDS011;25686;51.908;10.418;2022-10-14T08:24:14;7.63;;;4.85;;
39994;SDS011;25686;51.908;10.418;2022-10-14T08:28:22;5.22;;;4.60;;
39994;SDS011;25686;51.908;10.418;2022-10-14T08:30:24;6.95;;;5.00;;
39994;SDS011;25686;51.908;10.418;2022-10-14T08:32:25;6.03;;;4.50;;
39994;SDS011;25686;51.908;10.418;2022-10-14T08:34:26;5.38;;;4.40;;
39994;SDS011;25686;51.908;10.418;2022-10-14T08:36:28;4.85;;;4.35;;
39994;SDS011;25686;51.908;10.418;2022-10-14T08:38:28;5.40;;;4.13;;
39994;SDS011;25686;51.908;10.418;2022-10-14T08:40:32;7.05;;;3.97;;
39994;SDS011;25686;51.908;10.418;2022-10-14T08:44:39;5.00;;;3.92;;
39994;SDS011;25686;51.908;10.418;2022-10-14T08:46:43;4.50;;;3.78;;
39994;SDS011;25686;51.908;10.418;2022-10-14T08:48:45;5.25;;;3.55;;
39994;SDS011;25686;51.908;10.418;2022-10-14T08:50:48;4.05;;;3.10;;
39994;SDS011;25686;51.908;10.418;2022-10-14T08:53:01;4.07;;;3.45;;
39994;SDS011;25686;51.908;10.418;2022-10-14T08:55:10;4.95;;;3.70;;
39994;SDS011;25686;51.908;10.418;2022-10-14T08:57:37;4.90;;;3.33;;
39994;SDS011;25686;51.908;10.418;2022-10-14T08:59:36;6.15;;;3.50;;
39994;SDS011;25686;51.908;10.418;2022-10-14T09:01:43;4.18;;;3.38;;
39994;SDS011;25686;51.908;10.418;2022-10-14T09:03:55;5.35;;;3.50;;
39994;SDS011;25686;51.908;10.418;2022-10-14T09:06:01;4.03;;;3.10;;
39994;SDS011;25686;51.908;10.418;2022-10-14T09:08:02;6.53;;;3.05;;
39994;SDS011;25686;51.908;10.418;2022-10-14T09:10:05;3.95;;;3.40;;
39994;SDS011;25686;51.908;10.418;2022-10-14T09:12:10;4.65;;;3.40;;
39994;SDS011;25686;51.908;10.418;2022-10-14T09:14:16;4.00;;;3.60;;
39994;SDS011;25686;51.908;10.418;2022-10-14T09:16:19;3.25;;;2.95;;
39994;SDS011;25686;51.908;10.418;2022-10-14T09:18:22;3.30;;;2.92;;
39994;SDS011;25686;51.908;10.418;2022-10-14T09:20:24;3.45;;;2.67;;
39994;SDS011;25686;51.908;10.418;2022-10-14T09:22:25;6.03;;;2.63;;
39994;SDS011;25686;51.908;10.418;2022-10-14T09:26:30;3.08;;;2.72;;
39994;SDS011;25686;51.908;10.418;2022-10-14T09:28:38;2.92;;;2.63;;
39994;SDS011;25686;51.908;10.418;2022-10-14T09:30:40;3.20;;;2.60;;
39994;SDS011;25686;51.908;10.418;2022-10-14T09:34:47;2.55;;;2.35;;
39994;SDS011;25686;51.908;10.418;2022-10-14T09:36:48;3.67;;;2.63;;
39994;SDS011;25686;51.908;10.418;2022-10-14T09:38:50;6.05;;;3.67;;
39994;SDS011;25686;51.908;10.418;2022-10-14T09:40:55;6.43;;;2.70;;
39994;SDS011;25686;51.908;10.418;2022-10-14T09:43:03;3.58;;;2.40;;
39994;SDS011;25686;51.908;10.418;2022-10-14T09:45:09;3.55;;;2.40;;
39994;SDS011;25686;51.908;10.418;2022-10-14T09:47:11;4.45;;;2.35;;
39994;SDS011;25686;51.908;10.418;2022-10-14T09:49:25;2.92;;;2.47;;
39994;SDS011;25686;51.908;10.418;2022-10-14T09:51:31;3.03;;;2.72;;
39994;SDS011;25686;51.908;10.418;2022-10-14T09:53:37;3.85;;;2.63;;
39994;SDS011;25686;51.908;10.418;2022-10-14T09:55:45;3.22;;;2.72;;
39994;SDS011;25686;51.908;10.418;2022-10-14T09:57:59;2.60;;;2.40;;
39994;SDS011;25686;51.908;10.418;2022-10-14T10:00:03;2.30;;;2.10;;
39994;SDS011;25686;51.908;10.418;2022-10-14T10:02:05;2.78;;;2.08;;
39994;SDS011;25686;51.908;10.418;2022-10-14T10:06:31;3.83;;;2.40;;
39994;SDS011;25686;51.908;10.418;2022-10-14T10:08:33;3.45;;;2.20;;
39994;SDS011;25686;51.908;10.418;2022-10-14T10:10:35;4.93;;;2.53;;
39994;SDS011;25686;51.908;10.418;2022-10-14T10:12:35;3.95;;;2.42;;
39994;SDS011;25686;51.908;10.418;2022-10-14T10:14:40;2.83;;;1.95;;
39994;SDS011;25686;51.908;10.418;2022-10-14T10:16:41;2.75;;;2.03;;
39994;SDS011;25686;51.908;10.418;2022-10-14T10:18:42;2.72;;;2.20;;
39994;SDS011;25686;51.908;10.418;2022-10-14T10:20:43;1.92;;;1.83;;
39994;SDS011;25686;51.908;10.418;2022-10-14T10:25:22;1.70;;;1.60;;
39994;SDS011;25686;51.908;10.418;2022-10-14T10:27:28;2.08;;;1.67;;
39994;SDS011;25686;51.908;10.418;2022-10-14T10:29:33;2.00;;;1.85;;
39994;SDS011;25686;51.908;10.418;2022-10-14T10:31:50;1.70;;;1.60;;
39994;SDS011;25686;51.908;10.418;2022-10-14T10:33:55;3.33;;;1.63;;
39994;SDS011;25686;51.908;10.418;2022-10-14T10:36:14;1.70;;;1.60;;
39994;SDS011;25686;51.908;10.418;2022-10-14T10:42:23;1.90;;;1.80;;
39994;SDS011;25686;51.908;10.418;2022-10-14T10:44:32;1.67;;;1.58;;
39994;SDS011;25686;51.908;10.418;2022-10-14T10:48:45;2.92;;;1.33;;
39994;SDS011;25686;51.908;10.418;2022-10-14T10:50:50;1.10;;;1.10;;
39994;SDS011;25686;51.908;10.418;2022-10-14T10:53:01;2.28;;;1.20;;
39994;SDS011;25686;51.908;10.418;2022-10-14T10:55:15;5.03;;;1.70;;
39994;SDS011;25686;51.908;10.418;2022-10-14T10:59:47;2.95;;;1.20;;
39994;SDS011;25686;51.908;10.418;2022-10-14T11:02:05;2.00;;;1.40;;
39994;SDS011;25686;51.908;10.418;2022-10-14T11:04:32;1.70;;;1.60;;
39994;SDS011;25686;51.908;10.418;2022-10-14T11:06:36;2.00;;;1.80;;
39994;SDS011;25686;51.908;10.418;2022-10-14T11:09:01;2.95;;;1.70;;
39994;SDS011;25686;51.908;10.418;2022-10-14T11:11:37;2.33;;;1.63;;
39994;SDS011;25686;51.908;10.418;2022-10-14T11:24:51;1.90;;;1.55;;
39994;SDS011;25686;51.908;10.418;2022-10-14T11:31:04;1.95;;;1.75;;
39994;SDS011;25686;51.908;10.418;2022-10-14T11:33:18;2.03;;;1.80;;
39994;SDS011;25686;51.908;10.418;2022-10-14T11:35:37;2.88;;;1.88;;
39994;SDS011;25686;51.908;10.418;2022-10-14T11:37:49;3.97;;;2.17;;
39994;SDS011;25686;51.908;10.418;2022-10-14T11:46:20;9.27;;;2.10;;
39994;SDS011;25686;51.908;10.418;2022-10-14T11:50:24;5.30;;;1.90;;
39994;SDS011;25686;51.908;10.418;2022-10-14T11:52:28;2.00;;;1.80;;
39994;SDS011;25686;51.908;10.418;2022-10-14T11:56:33;4.97;;;1.55;;
39994;SDS011;25686;51.908;10.418;2022-10-14T11:58:35;1.65;;;1.35;;
39994;SDS011;25686;51.908;10.418;2022-10-14T12:00:38;1.60;;;1.50;;
39994;SDS011;25686;51.908;10.418;2022-10-14T12:07:16;4.63;;;1.40;;
39994;SDS011;25686;51.908;10.418;2022-10-14T12:09:31;1.83;;;1.25;;
39994;SDS011;25686;51.908;10.418;2022-10-14T12:11:45;2.50;;;1.60;;
39994;SDS011;25686;51.908;10.418;2022-10-14T12:13:50;1.33;;;1.23;;
39994;SDS011;25686;51.908;10.418;2022-10-14T12:15:52;1.55;;;1.20;;
39994;SDS011;25686;51.908;10.418;2022-10-14T12:17:58;1.42;;;1.30;;
39994;SDS011;25686;51.908;10.418;2022-10-14T12:20:06;1.35;;;1.10;;
39994;SDS011;25686;51.908;10.418;2022-10-14T12:24:17;2.95;;;1.20;;
39994;SDS011;25686;51.908;10.418;2022-10-14T12:28:19;1.33;;;1.23;;
39994;SDS011;25686;51.908;10.418;2022-10-14T12:32:31;2.58;;;1.52;;
39994;SDS011;25686;51.908;10.418;2022-10-14T12:34:36;1.40;;;1.30;;
39994;SDS011;25686;51.908;10.418;2022-10-14T12:36:41;1.25;;;1.15;;
39994;SDS011;25686;51.908;10.418;2022-10-14T12:38:43;2.38;;;1.17;;
39994;SDS011;25686;51.908;10.418;2022-10-14T12:41:38;1.65;;;1.20;;
39994;SDS011;25686;51.908;10.418;2022-10-14T12:43:31;1.65;;;1.40;;
39994;SDS011;25686;51.908;10.418;2022-10-14T12:45:33;1.67;;;1.20;;
39994;SDS011;25686;51.908;10.418;2022-10-14T12:47:34;1.55;;;1.30;;
39994;SDS011;25686;51.908;10.418;2022-10-14T12:49:36;5.53;;;1.52;;
39994;SDS011;25686;51.908;10.418;2022-10-14T12:51:37;2.95;;;1.40;;
39994;SDS011;25686;51.908;10.418;2022-10-14T12:53:53;6.18;;;1.50;;
39994;SDS011;25686;51.908;10.418;2022-10-14T12:55:57;4.13;;;1.65;;
39994;SDS011;25686;51.908;10.418;2022-10-14T12:58:00;1.30;;;1.20;;
39994;SDS011;25686;51.908;10.418;2022-10-14T13:00:06;1.58;;;1.38;;
39994;SDS011;25686;51.908;10.418;2022-10-14T13:02:28;1.38;;;1.25;;
39994;SDS011;25686;51.908;10.418;2022-10-14T13:04:33;1.65;;;1.38;;
39994;SDS011;25686;51.908;10.418;2022-10-14T13:06:41;2.28;;;1.67;;
39994;SDS011;25686;51.908;10.418;2022-10-14T13:08:42;4.03;;;1.58;;
39994;SDS011;25686;51.908;10.418;2022-10-14T13:11:10;3.17;;;1.50;;
39994;SDS011;25686;51.908;10.418;2022-10-14T13:15:33;1.50;;;1.40;;
39994;SDS011;25686;51.908;10.418;2022-10-14T13:17:42;3.05;;;1.48;;
39994;SDS011;25686;51.908;10.418;2022-10-14T13:19:44;1.60;;;1.35;;
39994;SDS011;25686;51.908;10.418;2022-10-14T13:23:46;1.80;;;1.70;;
39994;SDS011;25686;51.908;10.418;2022-10-14T13:25:49;3.30;;;1.70;;